Time;durP1;ratioP1;P1;durP2;ratioP2;P2;SDS_P1;SDS_P2;PMS_P1;PMS_P2;Temp;Humidity;BMP_temperature;BMP_pressure;BME280_temperature;BME280_humidity;BME280_pressure;Samples;Min_cycle;Max_cycle;Signal;HPM_P1;HPM_P2
2022/08/29 00:01:20;;;;;;;4.93;4.63;;;14.60;99.90;;;;;;5052165;28;20343;-64
2022/08/29 00:03:46;;;;;;;5.63;5.23;;;14.60;99.90;;;;;;5051975;28;20206;-64
2022/08/29 00:06:12;;;;;;;5.27;4.80;;;14.60;99.90;;;;;;5050907;28;20175;-64
2022/08/29 00:08:38;;;;;;;5.10;4.60;;;14.50;99.90;;;;;;5052357;28;20175;-64
2022/08/29 00:11:05;;;;;;;5.90;5.40;;;14.50;99.90;;;;;;5051944;28;20178;-64
2022/08/29 00:13:31;;;;;;;5.37;5.10;;;14.40;99.90;;;;;;5051888;28;20694;-64
2022/08/29 00:15:57;;;;;;;5.30;5.00;;;14.40;99.90;;;;;;5051953;28;20189;-64
2022/08/29 00:18:23;;;;;;;5.70;5.20;;;14.30;99.90;;;;;;5051969;28;20604;-65
2022/08/29 00:20:50;;;;;;;5.20;4.70;;;14.30;99.90;;;;;;5052261;28;20181;-64
2022/08/29 00:23:16;;;;;;;5.10;4.70;;;14.30;99.90;;;;;;5050412;28;20211;-64
2022/08/29 00:25:42;;;;;;;4.40;4.20;;;14.30;99.90;;;;;;5051717;28;20179;-64
2022/08/29 00:28:08;;;;;;;5.10;4.80;;;14.20;99.90;;;;;;5051716;28;20520;-64
2022/08/29 00:30:34;;;;;;;4.70;4.40;;;14.20;99.90;;;;;;5051891;28;20281;-64
2022/08/29 00:33:00;;;;;;;4.47;3.93;;;14.30;99.90;;;;;;5051623;28;20230;-64
2022/08/29 00:35:34;;;;;;;5.63;5.23;;;14.20;99.90;;;;;;5051579;28;20266;-65
2022/08/29 00:38:02;;;;;;;5.37;4.97;;;14.20;99.90;;;;;;5051504;28;20196;-64
2022/08/29 00:40:35;;;;;;;5.07;4.70;;;14.20;99.90;;;;;;5051605;28;20175;-65
2022/08/29 00:43:01;;;;;;;7.13;6.70;;;14.20;99.90;;;;;;5051474;28;20182;-64
2022/08/29 00:45:28;;;;;;;6.70;6.33;;;14.20;99.90;;;;;;5051422;28;20171;-64
2022/08/29 00:47:59;;;;;;;6.27;5.77;;;14.10;99.90;;;;;;5051687;28;20236;-64
2022/08/29 00:50:30;;;;;;;5.67;5.17;;;14.00;99.90;;;;;;5051696;28;20639;-64
2022/08/29 00:52:57;;;;;;;6.27;4.97;;;14.00;99.90;;;;;;5051425;28;20248;-65
2022/08/29 00:55:26;;;;;;;5.67;5.23;;;14.00;99.90;;;;;;5051285;28;20254;-64
2022/08/29 00:58:03;;;;;;;6.50;5.97;;;14.00;99.90;;;;;;5051520;28;20229;-64
2022/08/29 01:00:29;;;;;;;4.77;4.40;;;13.90;99.90;;;;;;5051633;28;20209;-64
2022/08/29 01:02:56;;;;;;;4.97;4.60;;;13.80;99.90;;;;;;5051354;28;20754;-65
2022/08/29 01:05:24;;;;;;;4.63;4.33;;;13.80;99.90;;;;;;5051150;28;20183;-64
2022/08/29 01:07:51;;;;;;;6.33;4.73;;;13.70;99.90;;;;;;5051365;28;20670;-64
2022/08/29 01:13:06;;;;;;;5.77;5.20;;;13.70;99.90;;;;;;5050159;28;20251;-64
2022/08/29 01:15:33;;;;;;;5.40;4.90;;;13.70;99.90;;;;;;5051526;28;20255;-64
2022/08/29 01:18:01;;;;;;;5.33;4.93;;;13.70;99.90;;;;;;5051417;28;20201;-64
2022/08/29 01:20:57;;;;;;;4.80;4.50;;;13.70;99.90;;;;;;5047651;28;20179;-64
2022/08/29 01:23:31;;;;;;;5.47;4.93;;;13.60;99.90;;;;;;5042565;28;20207;-64
2022/08/29 01:25:59;;;;;;;5.23;4.73;;;13.60;99.90;;;;;;5034804;28;20175;-64
2022/08/29 01:28:30;;;;;;;5.13;4.83;;;13.50;99.90;;;;;;5049975;28;20163;-65
2022/08/29 01:31:16;;;;;;;5.37;4.97;;;13.50;99.90;;;;;;5051133;28;20190;-64
2022/08/29 01:33:46;;;;;;;4.97;4.57;;;13.40;99.90;;;;;;5050985;28;20174;-64
2022/08/29 01:36:17;;;;;;;6.07;4.60;;;13.40;99.90;;;;;;5050983;28;20225;-64
2022/08/29 01:38:43;;;;;;;5.23;4.83;;;13.20;99.90;;;;;;5051086;28;20236;-64
2022/08/29 01:41:10;;;;;;;5.83;5.23;;;13.20;99.90;;;;;;5050831;28;20183;-64
2022/08/29 01:43:47;;;;;;;5.20;4.90;;;13.10;99.90;;;;;;5050730;28;20206;-64
2022/08/29 01:46:16;;;;;;;5.23;4.67;;;13.10;99.90;;;;;;5050776;28;20232;-64
2022/08/29 01:48:44;;;;;;;5.10;4.80;;;13.00;99.90;;;;;;5051160;28;20584;-64
2022/08/29 01:51:11;;;;;;;5.20;4.77;;;13.00;99.90;;;;;;5054344;28;20168;-64
2022/08/29 01:53:37;;;;;;;5.37;4.97;;;13.00;99.90;;;;;;5054608;28;20557;-64
2022/08/29 01:56:13;;;;;;;4.77;4.37;;;13.00;99.90;;;;;;5054509;28;20185;-64
2022/08/29 01:58:39;;;;;;;5.63;5.10;;;12.90;99.90;;;;;;5054731;28;20643;-64
2022/08/29 02:01:06;;;;;;;5.63;5.10;;;12.90;99.90;;;;;;5054479;28;20660;-64
2022/08/29 02:03:31;;;;;;;5.40;5.00;;;12.90;99.90;;;;;;5054219;28;20709;-65
2022/08/29 02:06:02;;;;;;;4.80;4.47;;;12.80;99.90;;;;;;5054474;28;20171;-64
2022/08/29 02:08:28;;;;;;;5.37;4.97;;;12.80;99.90;;;;;;5054517;28;20175;-64
2022/08/29 02:10:55;;;;;;;5.13;4.83;;;12.80;99.90;;;;;;5054430;28;20202;-64
2022/08/29 02:13:21;;;;;;;6.87;5.43;;;12.80;99.90;;;;;;5052972;28;20541;-64
2022/08/29 02:15:47;;;;;;;5.60;5.10;;;12.80;99.90;;;;;;5054857;28;20269;-67
2022/08/29 02:18:13;;;;;;;5.47;5.17;;;12.80;99.90;;;;;;5055579;28;20263;-72
2022/08/29 02:20:38;;;;;;;5.73;5.20;;;12.80;99.90;;;;;;5056001;28;20178;-68
2022/08/29 02:23:04;;;;;;;5.33;5.03;;;12.80;99.90;;;;;;5055975;28;20214;-69
2022/08/29 02:25:41;;;;;;;5.47;5.07;;;12.80;99.90;;;;;;5055659;28;20234;-67
2022/08/29 02:28:10;;;;;;;5.90;5.30;;;12.70;99.90;;;;;;5055632;28;20179;-67
2022/08/29 02:30:39;;;;;;;5.90;5.50;;;12.80;99.90;;;;;;5055999;28;20553;-67
2022/08/29 02:33:06;;;;;;;7.03;6.57;;;12.80;99.90;;;;;;5055624;28;20560;-68
2022/08/29 02:35:32;;;;;;;5.80;5.50;;;12.90;99.90;;;;;;5055525;28;20166;-66
2022/08/29 02:37:58;;;;;;;5.60;5.13;;;12.90;99.90;;;;;;5055631;28;20651;-69
2022/08/29 02:40:26;;;;;;;5.80;5.30;;;13.00;99.90;;;;;;5055411;28;20241;-68
2022/08/29 02:42:53;;;;;;;5.80;5.30;;;12.90;99.90;;;;;;5055510;28;20674;-67
2022/08/29 02:45:20;;;;;;;5.60;5.17;;;12.90;99.90;;;;;;5055233;28;20214;-68
2022/08/29 02:47:46;;;;;;;5.47;4.97;;;12.90;99.90;;;;;;5055634;28;20651;-67
2022/08/29 02:50:12;;;;;;;5.40;4.90;;;12.90;99.90;;;;;;5055078;28;20182;-68
2022/08/29 02:52:39;;;;;;;8.93;5.17;;;12.90;99.90;;;;;;5055386;28;20214;-69
2022/08/29 02:55:08;;;;;;;5.27;4.97;;;12.90;99.90;;;;;;5055197;28;20202;-67
2022/08/29 02:57:34;;;;;;;4.97;4.57;;;12.90;99.90;;;;;;5055179;28;20586;-68
2022/08/29 03:00:00;;;;;;;5.57;5.20;;;13.00;99.90;;;;;;5053748;28;20174;-69
2022/08/29 03:02:26;;;;;;;6.43;5.60;;;13.00;99.90;;;;;;5053935;28;20210;-69
2022/08/29 03:04:52;;;;;;;5.97;5.47;;;13.00;99.90;;;;;;5054593;28;20216;-68
2022/08/29 03:07:18;;;;;;;5.53;5.13;;;13.00;99.90;;;;;;5057705;28;20253;-68
2022/08/29 03:09:43;;;;;;;4.90;4.50;;;13.10;99.90;;;;;;5060219;28;20167;-68
2022/08/29 03:12:09;;;;;;;4.83;4.53;;;13.00;99.90;;;;;;5059668;28;20223;-69
2022/08/29 03:14:35;;;;;;;4.93;4.63;;;13.00;99.90;;;;;;5060326;28;20187;-69
2022/08/29 03:17:00;;;;;;;5.97;5.37;;;13.10;99.90;;;;;;5059978;28;20185;-70
2022/08/29 03:19:26;;;;;;;5.30;4.80;;;13.10;99.90;;;;;;5060131;28;20198;-69
2022/08/29 03:21:52;;;;;;;14.37;5.00;;;13.00;99.90;;;;;;5059625;28;20199;-69
2022/08/29 03:24:17;;;;;;;6.80;5.30;;;13.00;99.90;;;;;;5059598;28;20862;-69
2022/08/29 03:26:43;;;;;;;5.33;4.93;;;13.00;99.90;;;;;;5060246;28;20171;-70
2022/08/29 03:29:09;;;;;;;5.50;5.03;;;12.90;99.90;;;;;;5053916;28;20216;-70
2022/08/29 03:31:35;;;;;;;5.43;4.93;;;12.90;99.90;;;;;;5054453;28;20544;-68
2022/08/29 03:34:00;;;;;;;4.97;4.53;;;12.90;99.90;;;;;;5054394;28;20293;-65
2022/08/29 03:36:26;;;;;;;5.10;4.80;;;12.90;99.90;;;;;;5054254;28;20186;-68
2022/08/29 03:38:51;;;;;;;4.90;4.60;;;12.90;99.90;;;;;;5054879;28;20186;-69
2022/08/29 03:41:26;;;;;;;4.93;4.63;;;12.80;99.90;;;;;;5054322;28;20202;-70
2022/08/29 03:43:54;;;;;;;5.43;4.77;;;12.80;99.90;;;;;;5053981;28;20216;-69
2022/08/29 03:46:23;;;;;;;5.70;5.23;;;12.80;99.90;;;;;;5054060;28;20174;-68
2022/08/29 03:48:49;;;;;;;5.53;5.07;;;12.80;99.90;;;;;;5054649;28;20200;-69
2022/08/29 03:51:15;;;;;;;5.13;4.80;;;12.70;99.90;;;;;;5053997;28;20179;-68
2022/08/29 03:53:41;;;;;;;6.53;5.40;;;12.70;99.90;;;;;;5054377;28;20640;-69
2022/08/29 03:56:08;;;;;;;5.43;4.90;;;12.70;99.90;;;;;;5053730;28;20282;-65
2022/08/29 03:58:33;;;;;;;5.33;4.93;;;12.60;99.90;;;;;;5052384;28;20194;-65
2022/08/29 04:00:59;;;;;;;5.70;5.20;;;12.60;99.90;;;;;;5052208;28;20179;-65
2022/08/29 04:03:25;;;;;;;5.37;4.93;;;12.50;99.90;;;;;;5052067;28;20286;-65
2022/08/29 04:05:51;;;;;;;6.00;5.17;;;12.50;99.90;;;;;;5052236;28;20256;-64
2022/08/29 04:08:18;;;;;;;5.50;5.00;;;12.50;99.90;;;;;;5052208;28;20230;-65
2022/08/29 04:10:44;;;;;;;5.90;5.40;;;12.40;99.90;;;;;;5052096;28;20190;-65
2022/08/29 04:13:09;;;;;;;7.00;5.27;;;12.40;99.90;;;;;;5051547;28;20202;-65
2022/08/29 04:15:38;;;;;;;6.93;5.07;;;12.40;99.90;;;;;;5051803;28;20205;-65
2022/08/29 04:18:05;;;;;;;5.53;5.13;;;12.40;99.90;;;;;;5052119;28;20238;-65
2022/08/29 04:20:34;;;;;;;4.90;4.60;;;12.40;99.90;;;;;;5051968;28;20171;-65
2022/08/29 04:23:00;;;;;;;5.20;4.90;;;12.40;99.90;;;;;;5051849;28;20198;-65
2022/08/29 04:25:27;;;;;;;5.70;5.20;;;12.30;99.90;;;;;;5051576;28;20198;-65
2022/08/29 04:27:54;;;;;;;5.67;5.37;;;12.30;99.90;;;;;;5051920;28;20175;-65
2022/08/29 04:30:22;;;;;;;6.20;5.80;;;12.30;99.90;;;;;;5049595;28;20183;-65
2022/08/29 04:32:48;;;;;;;5.30;5.00;;;12.20;99.90;;;;;;5051776;28;20598;-65
2022/08/29 04:35:15;;;;;;;5.93;5.40;;;12.20;99.90;;;;;;5051369;28;20236;-65
2022/08/29 04:37:42;;;;;;;8.80;5.20;;;12.10;99.90;;;;;;5051853;28;20178;-65
2022/08/29 04:40:10;;;;;;;5.63;5.13;;;12.10;99.90;;;;;;5051641;28;20178;-65
2022/08/29 04:42:37;;;;;;;5.70;5.03;;;12.10;99.90;;;;;;5052081;28;20187;-65
2022/08/29 04:45:05;;;;;;;6.83;5.77;;;12.10;99.90;;;;;;5051149;28;20221;-64
2022/08/29 04:47:30;;;;;;;7.67;5.93;;;12.00;99.90;;;;;;5051716;28;20194;-65
2022/08/29 04:49:56;;;;;;;7.03;5.57;;;12.00;99.90;;;;;;5051750;28;20527;-65
2022/08/29 04:52:22;;;;;;;6.63;5.13;;;12.00;99.90;;;;;;5052118;28;20214;-64
2022/08/29 04:54:48;;;;;;;6.33;5.80;;;12.00;99.90;;;;;;5051292;28;20175;-63
2022/08/29 04:57:14;;;;;;;7.57;5.70;;;12.00;99.90;;;;;;5049445;28;20432;-64
2022/08/29 04:59:40;;;;;;;5.93;5.53;;;12.00;99.90;;;;;;5051632;28;20253;-63
2022/08/29 05:02:05;;;;;;;8.07;5.70;;;12.00;99.90;;;;;;5051214;28;20199;-64
2022/08/29 05:04:31;;;;;;;10.07;5.43;;;12.00;99.90;;;;;;5050930;28;20202;-64
2022/08/29 05:06:57;;;;;;;6.60;5.80;;;12.00;99.90;;;;;;5051371;28;20231;-65
2022/08/29 05:09:22;;;;;;;6.50;5.77;;;12.00;99.90;;;;;;5051473;28;20178;-63
2022/08/29 05:11:48;;;;;;;6.10;5.23;;;12.10;99.90;;;;;;5051406;28;20205;-63
2022/08/29 05:14:14;;;;;;;5.93;5.43;;;12.20;99.90;;;;;;5050754;28;20181;-64
2022/08/29 05:16:40;;;;;;;5.97;4.93;;;12.30;99.90;;;;;;5051280;28;20261;-64
2022/08/29 05:19:07;;;;;;;6.43;5.80;;;12.40;99.90;;;;;;5051204;28;20171;-63
2022/08/29 05:21:37;;;;;;;6.57;6.00;;;12.50;99.90;;;;;;5051505;28;20195;-64
2022/08/29 05:24:04;;;;;;;6.77;6.07;;;12.50;99.90;;;;;;5051313;28;20232;-64
2022/08/29 05:26:35;;;;;;;6.43;6.00;;;12.50;99.90;;;;;;5055220;28;20182;-64
2022/08/29 05:29:01;;;;;;;5.70;5.10;;;12.60;99.90;;;;;;5055267;28;20178;-63
2022/08/29 05:31:27;;;;;;;6.10;5.50;;;12.60;99.90;;;;;;5055297;28;20195;-64
2022/08/29 05:33:52;;;;;;;6.10;5.60;;;12.60;99.90;;;;;;5054795;28;20171;-64
2022/08/29 05:36:18;;;;;;;10.13;6.20;;;12.60;99.90;;;;;;5054872;28;20186;-64
2022/08/29 05:38:43;;;;;;;6.20;5.60;;;12.70;99.90;;;;;;5055046;28;20261;-65
2022/08/29 05:41:10;;;;;;;5.97;5.47;;;12.80;99.90;;;;;;5054805;28;20218;-64
2022/08/29 05:43:36;;;;;;;5.90;5.40;;;12.90;99.90;;;;;;5054819;28;20252;-65
2022/08/29 05:46:04;;;;;;;6.77;6.20;;;13.00;99.90;;;;;;5054931;28;20175;-64
2022/08/29 05:48:31;;;;;;;6.00;5.60;;;13.00;99.90;;;;;;5054782;28;20170;-65
2022/08/29 05:50:57;;;;;;;5.67;5.20;;;13.20;99.90;;;;;;5054700;28;20185;-65
2022/08/29 05:53:24;;;;;;;8.63;5.87;;;13.40;99.90;;;;;;5054841;28;20186;-65
2022/08/29 05:55:49;;;;;;;6.07;5.10;;;13.60;99.90;;;;;;5054721;28;20179;-64
2022/08/29 05:58:15;;;;;;;5.10;4.70;;;13.90;99.90;;;;;;5054600;28;20186;-65
2022/08/29 06:00:42;;;;;;;5.87;4.90;;;14.10;99.90;;;;;;5054672;28;20452;-64
2022/08/29 06:03:10;;;;;;;9.00;6.07;;;14.40;99.90;;;;;;5054413;28;20736;-65
2022/08/29 06:05:36;;;;;;;5.90;5.40;;;14.70;99.90;;;;;;5054357;28;20562;-64
2022/08/29 06:08:03;;;;;;;5.77;4.80;;;14.90;99.90;;;;;;5054576;28;20251;-64
2022/08/29 06:10:28;;;;;;;5.50;5.10;;;15.20;99.90;;;;;;5054372;28;20567;-66
2022/08/29 06:12:54;;;;;;;6.17;5.63;;;15.60;99.90;;;;;;5054513;28;20186;-65
2022/08/29 06:15:21;;;;;;;6.90;4.50;;;15.90;99.90;;;;;;5054010;28;20190;-63
2022/08/29 06:17:47;;;;;;;4.10;3.80;;;16.30;99.90;;;;;;5054403;28;20541;-65
2022/08/29 06:20:12;;;;;;;7.70;4.03;;;16.60;99.90;;;;;;5052554;28;20186;-66
2022/08/29 06:22:39;;;;;;;4.87;4.40;;;16.80;99.90;;;;;;5037718;28;20322;-64
2022/08/29 06:25:06;;;;;;;4.23;3.93;;;17.20;99.90;;;;;;5033616;28;20279;-65
2022/08/29 06:27:32;;;;;;;14.03;4.90;;;17.20;99.90;;;;;;5034043;28;20249;-64
2022/08/29 06:29:57;;;;;;;7.40;4.53;;;17.40;99.90;;;;;;5033176;28;20629;-64
2022/08/29 06:32:23;;;;;;;7.63;4.70;;;17.40;99.90;;;;;;5033940;28;20198;-65
2022/08/29 06:34:49;;;;;;;5.33;4.57;;;17.30;99.90;;;;;;5032086;28;20573;-66
2022/08/29 06:37:15;;;;;;;9.03;5.13;;;17.30;99.90;;;;;;5033858;28;20179;-65
2022/08/29 06:39:41;;;;;;;5.17;4.67;;;17.30;99.90;;;;;;5034313;28;20176;-64
2022/08/29 06:42:06;;;;;;;5.83;4.30;;;17.20;99.90;;;;;;5033659;28;20729;-66
2022/08/29 06:44:32;;;;;;;5.80;4.63;;;17.00;99.90;;;;;;5033475;28;20242;-66
2022/08/29 06:46:58;;;;;;;4.83;4.33;;;16.80;99.90;;;;;;5033900;28;20266;-66
2022/08/29 06:49:24;;;;;;;9.83;4.87;;;16.70;99.90;;;;;;5033741;28;20760;-65
2022/08/29 06:51:51;;;;;;;7.73;4.87;;;16.50;99.90;;;;;;5033579;28;20207;-65
2022/08/29 06:54:18;;;;;;;6.73;5.47;;;16.40;99.90;;;;;;5033358;28;20188;-65
2022/08/29 06:56:45;;;;;;;5.17;4.70;;;16.40;99.90;;;;;;5033530;28;20203;-66
2022/08/29 06:59:11;;;;;;;4.93;4.33;;;16.50;99.90;;;;;;5033317;28;20237;-65
2022/08/29 07:01:38;;;;;;;6.63;4.63;;;16.70;99.90;;;;;;5033467;28;20209;-65
2022/08/29 07:04:04;;;;;;;4.80;4.23;;;16.90;99.90;;;;;;5032887;28;20199;-65
2022/08/29 07:06:30;;;;;;;6.97;4.60;;;17.20;99.90;;;;;;5032916;28;20241;-64
2022/08/29 07:08:57;;;;;;;4.80;4.40;;;17.70;99.90;;;;;;5033278;28;20178;-65
2022/08/29 07:11:28;;;;;;;5.17;4.50;;;18.10;99.90;;;;;;5031916;28;20565;-65
2022/08/29 07:14:01;;;;;;;5.77;4.13;;;18.50;99.90;;;;;;5031708;28;20187;-66
2022/08/29 07:16:28;;;;;;;4.97;4.47;;;19.00;99.90;;;;;;5051529;28;20178;-65
2022/08/29 07:18:53;;;;;;;5.23;4.03;;;19.30;99.90;;;;;;5053073;28;20171;-64
2022/08/29 07:21:21;;;;;;;10.97;4.63;;;19.60;99.90;;;;;;5046182;28;20207;-64
2022/08/29 07:23:48;;;;;;;7.18;4.20;;;19.80;99.90;;;;;;5044930;28;20581;-65
2022/08/29 07:26:16;;;;;;;10.02;5.05;;;20.00;99.90;;;;;;5049633;28;20179;-64
2022/08/29 07:28:45;;;;;;;5.53;4.22;;;20.50;99.90;;;;;;5052865;28;20209;-64
2022/08/29 07:31:10;;;;;;;4.75;3.90;;;21.10;99.90;;;;;;5052128;28;20452;-64
2022/08/29 07:33:36;;;;;;;6.20;4.30;;;21.50;99.90;;;;;;5052634;28;20200;-63
2022/08/29 07:36:02;;;;;;;4.68;3.67;;;21.90;99.90;;;;;;5051196;28;20178;-65
2022/08/29 07:38:29;;;;;;;6.80;3.83;;;22.30;99.90;;;;;;5052706;28;20171;-65
2022/08/29 07:41:05;;;;;;;6.90;3.88;;;22.80;99.90;;;;;;5051254;28;20189;-66
2022/08/29 07:43:31;;;;;;;4.15;3.83;;;23.00;99.90;;;;;;5052390;28;20213;-65
2022/08/29 07:45:57;;;;;;;13.35;4.38;;;23.20;99.90;;;;;;5052151;28;20636;-65
2022/08/29 07:48:24;;;;;;;9.32;3.38;;;23.60;99.90;;;;;;5051896;28;20209;-65
2022/08/29 07:50:50;;;;;;;3.75;3.35;;;24.00;99.90;;;;;;5052225;28;20556;-65
2022/08/29 07:53:17;;;;;;;6.80;4.22;;;24.30;99.90;;;;;;5052088;28;20311;-62
2022/08/29 07:55:43;;;;;;;3.95;3.63;;;24.60;99.90;;;;;;5052162;28;20205;-63
2022/08/29 07:58:08;;;;;;;4.05;3.63;;;24.90;99.90;;;;;;5050666;28;20174;-65
2022/08/29 08:00:34;;;;;;;6.15;4.57;;;24.70;99.90;;;;;;5052231;28;20175;-65
2022/08/29 08:03:00;;;;;;;4.88;4.03;;;24.50;99.90;;;;;;5051804;28;20205;-65
2022/08/29 08:05:26;;;;;;;7.05;3.97;;;24.40;99.90;;;;;;5051995;28;20199;-65
2022/08/29 08:07:51;;;;;;;6.22;3.90;;;24.20;99.90;;;;;;5051935;28;20170;-65
2022/08/29 08:10:19;;;;;;;6.85;4.40;;;24.20;99.90;;;;;;5052069;28;20210;-63
2022/08/29 08:12:45;;;;;;;5.40;4.05;;;24.50;99.90;;;;;;5051726;28;20226;-63
2022/08/29 08:15:11;;;;;;;4.57;3.80;;;24.90;99.90;;;;;;5066906;28;20186;-62
2022/08/29 08:17:37;;;;;;;8.43;3.58;;;25.30;99.90;;;;;;5051857;28;20179;-62
2022/08/29 08:20:06;;;;;;;5.82;3.78;;;25.40;99.90;;;;;;5032731;28;20191;-62
2022/08/29 08:22:32;;;;;;;6.13;3.95;;;26.00;99.90;;;;;;5043581;28;20306;-63
2022/08/29 08:24:57;;;;;;;7.63;4.03;;;26.20;99.90;;;;;;5051520;28;20571;-65
2022/08/29 08:27:23;;;;;;;4.80;3.53;;;26.40;99.90;;;;;;5051782;28;20174;-66
2022/08/29 08:29:49;;;;;;;7.30;4.45;;;26.50;99.90;;;;;;5050816;28;20236;-66
2022/08/29 08:32:14;;;;;;;7.95;5.35;;;26.80;99.90;;;;;;5051380;28;20198;-66
2022/08/29 08:34:41;;;;;;;5.78;5.28;;;26.70;99.90;;;;;;5051347;28;20179;-65
2022/08/29 08:37:10;;;;;;;7.15;4.00;;;26.70;99.90;;;;;;5051459;28;20683;-66
2022/08/29 08:39:37;;;;;;;4.55;4.15;;;26.70;99.90;;;;;;5051909;28;20204;-66
2022/08/29 08:42:48;;;;;;;4.40;4.00;;;26.60;99.90;;;;;;5051633;28;20202;-66
2022/08/29 08:45:30;;;;;;;5.28;4.18;;;26.80;99.90;;;;;;5046492;28;20692;-65
2022/08/29 08:48:08;;;;;;;6.38;3.60;;;26.70;99.90;;;;;;5051215;28;20186;-63
2022/08/29 08:50:56;;;;;;;5.82;3.78;;;27.00;99.90;;;;;;5051458;28;20644;-65
2022/08/29 08:53:42;;;;;;;5.78;3.05;;;27.30;99.90;;;;;;5051301;28;20202;-65
2022/08/29 08:56:29;;;;;;;4.15;3.30;;;27.40;99.90;;;;;;5051319;28;20644;-65
2022/08/29 08:59:21;;;;;;;5.20;3.47;;;27.70;99.90;;;;;;5051204;28;20214;-65
2022/08/29 09:02:01;;;;;;;4.85;3.15;;;28.00;99.90;;;;;;5050652;28;20210;-65
2022/08/29 09:04:52;;;;;;;7.75;3.60;;;28.30;99.90;;;;;;5050875;28;20205;-65
2022/08/29 09:07:38;;;;;;;5.30;3.45;;;28.20;99.90;;;;;;5049659;28;20178;-65
2022/08/29 09:10:33;;;;;;;3.90;3.60;;;28.00;99.90;;;;;;5051234;28;20174;-66
2022/08/29 09:13:22;;;;;;;3.35;2.80;;;28.00;99.90;;;;;;5050791;28;20243;-65
2022/08/29 09:15:51;;;;;;;4.50;3.15;;;28.40;99.90;;;;;;5049985;28;20174;-63
2022/08/29 09:18:33;;;;;;;4.88;3.30;;;28.70;99.90;;;;;;5051057;28;20179;-66
2022/08/29 09:21:02;;;;;;;5.18;3.13;;;28.50;99.90;;;;;;5051119;28;20167;-65
2022/08/29 09:23:38;;;;;;;3.47;2.90;;;28.30;99.90;;;;;;5050667;28;20175;-65
2022/08/29 09:26:04;;;;;;;2.88;2.67;;;28.20;99.90;;;;;;5051134;28;20258;-66
2022/08/29 09:28:30;;;;;;;3.70;3.40;;;28.20;99.90;;;;;;5050814;28;20700;-66
2022/08/29 09:31:21;;;;;;;5.47;4.85;;;28.30;99.90;;;;;;5051043;28;20208;-66
2022/08/29 09:33:57;;;;;;;4.07;3.75;;;28.50;99.90;;;;;;5050396;28;20186;-64
2022/08/29 09:36:45;;;;;;;3.20;2.90;;;28.80;99.90;;;;;;5050931;28;20175;-66
2022/08/29 09:39:13;;;;;;;3.75;3.30;;;29.30;99.90;;;;;;5050837;28;20186;-66
2022/08/29 09:41:39;;;;;;;6.55;2.95;;;29.70;99.90;;;;;;5051105;28;20190;-66
2022/08/29 09:44:10;;;;;;;3.58;2.83;;;28.90;98.80;;;;;;5050200;28;20207;-65
2022/08/29 09:46:35;;;;;;;3.20;2.85;;;28.60;99.90;;;;;;5049650;28;20640;-66
2022/08/29 09:49:01;;;;;;;4.57;2.80;;;28.80;99.90;;;;;;5050574;28;20236;-65
2022/08/29 09:51:31;;;;;;;6.95;3.45;;;28.80;99.20;;;;;;5050804;28;20244;-66
2022/08/29 09:54:21;;;;;;;4.20;3.25;;;28.80;98.50;;;;;;5050276;28;20261;-66
2022/08/29 09:56:50;;;;;;;4.28;3.17;;;28.60;99.80;;;;;;5051002;28;20178;-66
2022/08/29 09:59:25;;;;;;;4.05;2.90;;;28.90;99.40;;;;;;5050685;28;20179;-65
2022/08/29 10:02:10;;;;;;;3.78;2.72;;;29.40;99.30;;;;;;5048994;28;20215;-64
2022/08/29 10:04:39;;;;;;;3.08;2.78;;;29.70;96.70;;;;;;5050094;28;20215;-65
2022/08/29 10:07:24;;;;;;;4.13;2.70;;;29.50;97.40;;;;;;5050487;28;20308;-64
2022/08/29 10:09:59;;;;;;;5.05;3.30;;;29.40;97.70;;;;;;5050242;28;20198;-63
2022/08/29 10:12:45;;;;;;;3.70;2.92;;;29.30;97.60;;;;;;5054057;28;20766;-64
2022/08/29 10:15:17;;;;;;;3.70;3.50;;;29.70;98.50;;;;;;5054009;28;20199;-64
2022/08/29 10:21:04;;;;;;;3.17;2.88;;;30.30;96.30;;;;;;5034413;28;20776;-65
2022/08/29 10:23:51;;;;;;;3.70;3.28;;;30.60;94.70;;;;;;5038499;28;20201;-64
2022/08/29 10:26:37;;;;;;;3.65;3.28;;;30.20;94.60;;;;;;5054091;28;20318;-64
2022/08/29 10:29:02;;;;;;;4.38;3.30;;;29.90;94.10;;;;;;5052373;28;20248;-66
2022/08/29 10:31:41;;;;;;;6.45;3.25;;;29.90;95.50;;;;;;5052671;28;20191;-64
2022/08/29 10:34:26;;;;;;;3.75;3.05;;;29.70;93.60;;;;;;5053354;28;20261;-64
2022/08/29 10:37:00;;;;;;;2.97;2.72;;;29.70;94.20;;;;;;5054001;28;20202;-64
2022/08/29 10:40:17;;;;;;;3.00;2.70;;;29.90;95.50;;;;;;5053691;28;20702;-64
2022/08/29 10:42:46;;;;;;;10.05;3.28;;;30.00;93.90;;;;;;5052329;28;20211;-64
2022/08/29 10:45:38;;;;;;;4.03;3.05;;;29.60;92.80;;;;;;5053022;28;20753;-64
2022/08/29 10:48:32;;;;;;;7.05;3.28;;;29.70;93.90;;;;;;5053663;28;20544;-65
2022/08/29 10:51:22;;;;;;;5.03;2.97;;;30.30;93.10;;;;;;5033466;28;20167;-64
2022/08/29 10:53:57;;;;;;;3.50;2.90;;;30.70;94.10;;;;;;5108930;22;20716;-65
2022/08/29 10:56:34;;;;;;;3.60;2.83;;;31.10;92.70;;;;;;5097048;28;20188;-65
2022/08/29 10:59:18;;;;;;;3.55;3.08;;;31.20;91.70;;;;;;5095766;28;20226;-66
2022/08/29 11:01:48;;;;;;;4.32;3.00;;;31.30;92.00;;;;;;5094496;28;20180;-66
2022/08/29 11:04:16;;;;;;;4.63;3.13;;;31.70;89.50;;;;;;5093576;28;20658;-66
2022/08/29 11:07:18;;;;;;;6.50;3.10;;;31.90;91.30;;;;;;5092549;28;20195;-66
2022/08/29 11:10:03;;;;;;;6.82;3.28;;;32.10;91.40;;;;;;5073727;28;20170;-66
2022/08/29 11:12:43;;;;;;;3.15;2.85;;;32.30;89.60;;;;;;5080380;28;20194;-65
2022/08/29 11:15:32;;;;;;;4.65;3.35;;;32.10;88.30;;;;;;5093496;28;20574;-66
2022/08/29 11:18:08;;;;;;;3.92;3.63;;;31.90;85.50;;;;;;5074620;28;20237;-66
2022/08/29 11:20:40;;;;;;;3.47;3.28;;;31.40;85.00;;;;;;5074040;28;20195;-65
2022/08/29 11:23:43;;;;;;;3.92;3.13;;;30.70;84.90;;;;;;5072361;28;20185;-66
2022/08/29 11:26:40;;;;;;;4.00;3.15;;;30.30;87.90;;;;;;5084876;28;20185;-66
2022/08/29 11:30:03;;;;;;;4.72;3.20;;;30.20;86.20;;;;;;5092268;28;20176;-65
2022/08/29 11:32:43;;;;;;;9.00;3.58;;;31.00;87.40;;;;;;5050206;28;20676;-66
2022/08/29 11:35:24;;;;;;;4.10;3.17;;;31.80;85.40;;;;;;5070077;28;20231;-65
2022/08/29 11:38:08;;;;;;;4.18;2.95;;;31.80;83.50;;;;;;5052806;28;20179;-66
2022/08/29 11:40:42;;;;;;;3.60;3.30;;;31.80;83.10;;;;;;5079327;28;20185;-66
2022/08/29 11:43:13;;;;;;;3.58;3.30;;;31.40;79.80;;;;;;5092514;28;20562;-65
2022/08/29 11:45:42;;;;;;;3.70;3.40;;;31.10;81.40;;;;;;5078692;28;20206;-66
2022/08/29 11:48:18;;;;;;;4.43;3.40;;;31.40;78.90;;;;;;5072871;28;20174;-66
2022/08/29 11:50:45;;;;;;;3.65;2.92;;;31.90;80.90;;;;;;5084157;28;20195;-66
2022/08/29 11:53:19;;;;;;;4.45;2.70;;;32.40;79.80;;;;;;5092805;28;20584;-66
2022/08/29 11:56:14;;;;;;;3.58;3.28;;;32.70;76.60;;;;;;5078934;28;20546;-66
2022/08/29 11:58:44;;;;;;;5.32;3.70;;;32.40;74.80;;;;;;5072619;28;20180;-66
2022/08/29 12:01:32;;;;;;;6.75;3.88;;;31.80;74.80;;;;;;5088745;28;20650;-65
2022/08/29 12:03:59;;;;;;;3.05;2.75;;;32.10;78.20;;;;;;5082601;28;20256;-66
2022/08/29 12:06:36;;;;;;;4.45;4.05;;;32.40;76.70;;;;;;5072527;28;20167;-65
2022/08/29 12:09:11;;;;;;;5.15;3.17;;;32.30;76.20;;;;;;5081475;28;20532;-66
2022/08/29 12:12:07;;;;;;;3.83;3.15;;;32.00;75.10;;;;;;5092838;28;20168;-66
2022/08/29 12:14:42;;;;;;;6.10;3.88;;;32.50;75.60;;;;;;5079024;28;20671;-66
2022/08/29 12:17:30;;;;;;;3.58;3.22;;;32.40;70.90;;;;;;5072334;28;20186;-65
2022/08/29 12:19:56;;;;;;;4.85;3.20;;;32.00;72.20;;;;;;5086904;28;20185;-66
2022/08/29 12:23:02;;;;;;;5.65;4.00;;;31.80;71.60;;;;;;5092411;28;20205;-66
2022/08/29 12:25:43;;;;;;;4.28;3.92;;;31.80;72.10;;;;;;5072346;28;20251;-66
2022/08/29 12:28:16;;;;;;;4.28;3.80;;;31.80;72.30;;;;;;5072034;28;20177;-65
2022/08/29 12:30:47;;;;;;;3.55;3.17;;;32.10;71.60;;;;;;5092521;28;20173;-65
2022/08/29 12:33:15;;;;;;;5.90;3.47;;;32.20;71.30;;;;;;5091740;28;20189;-66
2022/08/29 12:36:06;;;;;;;3.50;3.17;;;32.40;75.00;;;;;;5072793;28;20182;-65
2022/08/29 12:38:43;;;;;;;5.93;3.80;;;32.50;74.40;;;;;;5073606;28;20284;-65
2022/08/29 12:41:27;;;;;;;4.70;3.35;;;32.50;74.50;;;;;;5087331;28;20260;-64
2022/08/29 12:43:58;;;;;;;4.55;3.13;;;32.80;68.80;;;;;;5071085;28;20202;-64
2022/08/29 12:46:30;;;;;;;4.00;3.60;;;32.50;69.50;;;;;;5072260;28;20608;-64
2022/08/29 12:49:15;;;;;;;3.58;3.28;;;32.50;70.00;;;;;;5072015;28;20718;-64
2022/08/29 12:51:42;;;;;;;3.83;3.53;;;32.20;72.30;;;;;;5085064;28;20260;-64
2022/08/29 12:54:10;;;;;;;7.40;3.20;;;32.10;69.20;;;;;;5091571;28;20182;-63
2022/08/29 12:56:41;;;;;;;4.65;3.92;;;31.40;70.40;;;;;;5079506;28;20178;-64
2022/08/29 12:59:16;;;;;;;4.05;3.75;;;31.20;72.00;;;;;;5071717;28;20174;-64
2022/08/29 13:01:46;;;;;;;5.05;4.53;;;30.90;69.00;;;;;;5084257;28;20177;-64
2022/08/29 13:04:16;;;;;;;5.53;4.93;;;30.70;69.50;;;;;;5091512;28;20200;-65
2022/08/29 13:07:00;;;;;;;5.65;5.25;;;30.60;69.80;;;;;;5079602;28;20178;-65
2022/08/29 13:09:33;;;;;;;6.78;5.13;;;30.50;72.90;;;;;;5072274;28;20723;-65
2022/08/29 13:12:19;;;;;;;5.35;4.85;;;30.10;70.20;;;;;;5085291;28;20566;-65